createdAt,value
2023-02-22T00:02:10.822Z,87.68
2023-02-22T00:04:39.746Z,87.89
2023-02-22T00:07:06.727Z,87.61
2023-02-22T00:09:33.485Z,87.65
2023-02-22T00:12:00.358Z,87.99
2023-02-22T00:14:27.561Z,87.64
2023-02-22T00:16:59.992Z,87.45
2023-02-22T00:19:28.140Z,87.49
2023-02-22T00:22:00.149Z,87.37
2023-02-22T00:24:26.932Z,87.69
2023-02-22T00:26:55.792Z,87.56
2023-02-22T00:29:23.437Z,87.39
2023-02-22T00:31:50.347Z,87.34
2023-02-22T00:34:17.770Z,87.52
2023-02-22T00:36:48.321Z,87.29
2023-02-22T00:39:16.851Z,87.27
2023-02-22T00:41:44.322Z,87.15
2023-02-22T00:44:11.736Z,87.38
2023-02-22T00:46:38.528Z,87.16
2023-02-22T00:49:05.349Z,87.42
2023-02-22T00:51:33.885Z,87.07
2023-02-22T00:54:00.648Z,87.38
2023-02-22T00:56:28.840Z,87.52
2023-02-22T00:58:55.685Z,87.31
2023-02-22T01:01:24.193Z,87.28
2023-02-22T01:03:51.114Z,87.18
2023-02-22T01:06:18.099Z,87.09
2023-02-22T01:08:45.911Z,87.05
2023-02-22T01:11:13.531Z,87.13
2023-02-22T01:13:42.001Z,87.13
2023-02-22T01:16:08.872Z,87.14
2023-02-22T01:18:39.853Z,87.15
2023-02-22T01:21:07.070Z,87.24
2023-02-22T01:23:33.932Z,86.94
2023-02-22T01:26:00.867Z,87.09
2023-02-22T01:28:29.152Z,86.84
2023-02-22T01:30:57.606Z,87.23
2023-02-22T01:33:25.635Z,86.93
2023-02-22T01:35:52.532Z,87.04
2023-02-22T01:38:19.364Z,86.90
2023-02-22T01:40:48.469Z,86.98
2023-02-22T01:43:19.423Z,87.37
2023-02-22T01:46:02.289Z,87.19
2023-02-22T01:48:42.260Z,87.23
2023-02-22T01:51:12.768Z,87.14
2023-02-22T01:53:47.519Z,86.96
2023-02-22T01:56:16.196Z,87.04
2023-02-22T01:58:48.570Z,87.25
2023-02-22T02:01:19.201Z,86.97
2023-02-22T02:03:46.367Z,86.99
2023-02-22T02:06:14.901Z,86.84
2023-02-22T02:08:51.769Z,86.94
2023-02-22T02:11:22.178Z,86.71
2023-02-22T02:13:51.812Z,86.81
2023-02-22T02:16:21.890Z,87.04
2023-02-22T02:18:49.153Z,86.88
2023-02-22T02:21:40.736Z,86.88
2023-02-22T02:24:40.467Z,86.87
2023-02-22T02:27:18.134Z,86.78
2023-02-22T02:30:22.481Z,86.62
2023-02-22T02:32:55.575Z,86.88
2023-02-22T02:35:35.666Z,86.68
2023-02-22T02:38:10.919Z,86.68
2023-02-22T02:40:47.327Z,86.86
2023-02-22T02:43:23.678Z,86.58
2023-02-22T02:45:58.823Z,86.90
2023-02-22T02:48:29.064Z,86.51
2023-02-22T02:50:59.364Z,86.69
2023-02-22T02:53:31.523Z,86.42
2023-02-22T02:55:59.070Z,86.62
2023-02-22T02:58:26.613Z,86.78
2023-02-22T03:00:56.909Z,86.62
2023-02-22T03:03:41.521Z,86.78
2023-02-22T03:06:42.205Z,86.64
2023-02-22T03:09:19.992Z,86.69
2023-02-22T03:11:59.734Z,86.73
2023-02-22T03:14:35.257Z,86.81
2023-02-22T03:17:08.884Z,86.69
2023-02-22T03:19:40.694Z,86.71
2023-02-22T03:22:10.694Z,86.86
2023-02-22T03:24:42.449Z,86.46
2023-02-22T03:27:14.508Z,86.61
2023-02-22T03:29:45.320Z,86.41
2023-02-22T03:32:17.088Z,86.76
2023-02-22T03:34:52.672Z,86.66
2023-02-22T03:37:23.369Z,86.54
2023-02-22T03:39:54.157Z,86.70
2023-02-22T03:42:24.138Z,86.65
2023-02-22T03:44:55.259Z,86.54
2023-02-22T03:47:28.508Z,86.67
2023-02-22T03:50:01.975Z,86.47
2023-02-22T03:52:28.972Z,86.54
2023-02-22T03:54:55.843Z,86.45
2023-02-22T03:57:30.933Z,86.67
2023-02-22T03:59:57.755Z,86.40
2023-02-22T04:02:24.561Z,86.52
2023-02-22T04:04:51.560Z,86.61
2023-02-22T04:07:19.797Z,86.20
2023-02-22T04:09:46.783Z,86.59
2023-02-22T04:12:13.586Z,86.90
2023-02-22T04:14:40.575Z,86.50
2023-02-22T04:17:07.456Z,86.48
2023-02-22T04:19:35.971Z,86.49
2023-02-22T04:22:03.141Z,86.43
2023-02-22T04:24:31.289Z,86.40
2023-02-22T04:26:58.245Z,86.44
2023-02-22T04:29:25.076Z,86.46
2023-02-22T04:31:52.652Z,86.64
2023-02-22T04:34:19.369Z,86.40
2023-02-22T04:36:46.421Z,86.44
2023-02-22T04:39:13.194Z,86.52
2023-02-22T04:42:00.130Z,86.49
2023-02-22T04:44:26.915Z,86.73
2023-02-22T04:46:53.836Z,86.55
2023-02-22T04:49:20.720Z,86.61
2023-02-22T04:51:47.531Z,86.43
2023-02-22T04:54:14.557Z,86.37
2023-02-22T04:56:41.471Z,86.54
2023-02-22T04:59:09.700Z,86.75
2023-02-22T05:01:37.880Z,86.73
2023-02-22T05:04:05.551Z,86.71
2023-02-22T05:06:32.439Z,86.84
2023-02-22T05:08:59.407Z,86.52
2023-02-22T05:11:26.320Z,86.65
2023-02-22T05:13:53.088Z,86.82
2023-02-22T05:16:21.502Z,86.43
2023-02-22T05:18:48.378Z,86.82
2023-02-22T05:21:15.373Z,86.52
2023-02-22T05:23:42.406Z,86.80
2023-02-22T05:26:11.643Z,86.89
2023-02-22T05:28:38.833Z,86.39
2023-02-22T05:31:07.372Z,86.55
2023-02-22T05:33:43.128Z,86.60
2023-02-22T05:36:10.249Z,86.82
2023-02-22T05:38:43.528Z,86.62
2023-02-22T05:41:11.454Z,86.75
2023-02-22T05:43:41.932Z,86.75
2023-02-22T05:46:09.075Z,86.86
2023-02-22T05:48:37.298Z,86.94
2023-02-22T05:51:04.494Z,86.91
2023-02-22T05:53:31.282Z,86.79
2023-02-22T05:55:58.084Z,87.03
2023-02-22T05:58:24.818Z,87.04
2023-02-22T06:00:51.694Z,87.14
2023-02-22T06:03:18.532Z,87.07
2023-02-22T06:05:46.992Z,86.97
2023-02-22T06:08:13.862Z,86.83
2023-02-22T06:10:41.072Z,86.93
2023-02-22T06:13:07.812Z,86.99
2023-02-22T06:15:34.601Z,86.79
2023-02-22T06:18:02.290Z,86.97
2023-02-22T06:20:31.417Z,86.94
2023-02-22T06:22:59.694Z,87.06
2023-02-22T06:25:28.091Z,87.56
2023-02-22T06:27:54.985Z,87.52
2023-02-22T06:30:23.020Z,86.93
2023-02-22T06:32:50.261Z,87.27
2023-02-22T06:35:17.413Z,87.62
2023-02-22T06:37:44.601Z,87.26
2023-02-22T06:40:13.498Z,87.23
2023-02-22T06:42:40.855Z,87.57
2023-02-22T06:45:08.725Z,87.28
2023-02-22T06:47:39.588Z,87.58
2023-02-22T06:50:07.213Z,87.45
2023-02-22T06:52:34.079Z,87.60
2023-02-22T06:55:01.120Z,87.55
2023-02-22T06:57:29.475Z,87.37
2023-02-22T06:59:56.254Z,87.42
2023-02-22T07:02:23.128Z,87.53
2023-02-22T07:04:50.032Z,87.67
2023-02-22T07:07:22.657Z,87.67
2023-02-22T07:09:49.581Z,87.74
2023-02-22T07:12:16.749Z,87.50
2023-02-22T07:14:45.070Z,87.85
2023-02-22T07:17:11.958Z,87.80
2023-02-22T07:19:39.047Z,87.64
2023-02-22T07:22:06.184Z,87.61
2023-02-22T07:24:35.104Z,87.70
2023-02-22T07:27:02.685Z,87.77
2023-02-22T07:29:32.345Z,87.52
2023-02-22T07:32:00.542Z,87.74
2023-02-22T07:34:27.356Z,87.87
2023-02-22T07:36:54.421Z,87.69
2023-02-22T07:39:21.093Z,87.92
2023-02-22T07:41:48.065Z,88.26
2023-02-22T07:44:15.311Z,87.80
2023-02-22T07:46:42.164Z,87.71
2023-02-22T07:49:10.473Z,88.03
2023-02-22T07:51:37.369Z,87.91
2023-02-22T07:54:04.491Z,87.87
2023-02-22T07:56:31.377Z,88.08
2023-02-22T07:58:58.178Z,87.89
2023-02-22T08:01:25.226Z,87.97
2023-02-22T08:03:52.777Z,88.03
2023-02-22T08:06:21.088Z,87.99
2023-02-22T08:08:47.831Z,88.26
2023-02-22T08:11:15.092Z,88.15
2023-02-22T08:13:41.893Z,88.13
2023-02-22T08:16:09.194Z,88.21
2023-02-22T08:18:38.273Z,88.20
2023-02-22T08:21:05.578Z,88.16
2023-02-22T08:23:34.458Z,88.41
2023-02-22T08:26:07.019Z,88.27
2023-02-22T08:28:33.811Z,88.04
2023-02-22T08:31:00.492Z,88.03
2023-02-22T08:33:27.468Z,88.15
2023-02-22T08:35:54.818Z,88.03
2023-02-22T08:38:23.682Z,88.35
2023-02-22T08:40:52.141Z,88.15
2023-02-22T08:43:20.074Z,88.41
2023-02-22T08:45:48.175Z,88.44
2023-02-22T08:48:16.617Z,88.42
2023-02-22T08:50:44.518Z,88.51
2023-02-22T08:53:13.784Z,88.39
2023-02-22T08:55:41.836Z,88.42
2023-02-22T08:58:10.687Z,88.27
2023-02-22T09:00:39.057Z,88.31
2023-02-22T09:03:07.461Z,88.29
2023-02-22T09:05:34.187Z,88.23
2023-02-22T09:08:02.104Z,88.12
2023-02-22T09:10:32.152Z,88.18
2023-02-22T09:13:00.949Z,88.28
2023-02-22T09:15:30.323Z,88.37
2023-02-22T09:17:57.213Z,88.01
2023-02-22T09:20:25.190Z,88.52
2023-02-22T09:22:52.344Z,88.08
2023-02-22T09:25:22.209Z,88.19
2023-02-22T09:27:49.921Z,88.14
2023-02-22T09:30:19.074Z,88.34
2023-02-22T09:32:47.619Z,88.28
2023-02-22T09:35:14.476Z,88.09
2023-02-22T09:37:45.048Z,87.95
2023-02-22T09:40:17.706Z,88.13
2023-02-22T09:42:53.345Z,87.87
2023-02-22T09:45:23.467Z,88.07
2023-02-22T09:47:57.673Z,88.03
2023-02-22T09:50:29.206Z,87.88
2023-02-22T09:53:05.132Z,87.87
2023-02-22T09:55:39.391Z,87.74
2023-02-22T09:58:16.249Z,87.49
2023-02-22T10:00:45.694Z,87.68
2023-02-22T10:03:22.869Z,87.60
2023-02-22T10:05:54.557Z,87.40
2023-02-22T10:08:21.792Z,87.17
2023-02-22T10:11:01.452Z,87.60
2023-02-22T10:13:42.177Z,87.46
2023-02-22T10:16:16.412Z,87.41
2023-02-22T10:19:08.222Z,87.38
2023-02-22T10:22:04.956Z,87.37
2023-02-22T10:24:42.669Z,87.14
2023-02-22T10:27:16.323Z,87.17
2023-02-22T10:29:46.756Z,87.43
2023-02-22T10:32:20.300Z,87.40
2023-02-22T10:34:51.644Z,87.06
2023-02-22T10:37:26.080Z,87.16
2023-02-22T10:39:59.180Z,87.07
2023-02-22T10:42:27.900Z,87.11
2023-02-22T10:44:54.856Z,87.23
2023-02-22T10:47:22.214Z,86.90
2023-02-22T10:49:55.834Z,86.91
2023-02-22T10:52:26.174Z,86.90
2023-02-22T10:55:13.599Z,86.76
2023-02-22T10:57:44.479Z,86.57
2023-02-22T11:00:21.068Z,86.38
2023-02-22T11:02:53.806Z,86.78
2023-02-22T11:05:36.790Z,86.32
2023-02-22T11:08:28.127Z,86.23
2023-02-22T11:10:56.707Z,86.40
2023-02-22T11:13:29.490Z,86.41
2023-02-22T11:16:00.233Z,86.30
2023-02-22T11:18:30.408Z,86.09
2023-02-22T11:21:05.121Z,85.78
2023-02-22T11:23:32.392Z,86.15
2023-02-22T11:26:07.379Z,85.92
2023-02-22T11:28:34.753Z,85.75
2023-02-22T11:31:13.688Z,85.94
2023-02-22T11:33:48.330Z,85.59
2023-02-22T11:36:30.789Z,85.46
2023-02-22T11:39:00.853Z,85.35
2023-02-22T11:41:29.180Z,85.44
2023-02-22T11:44:13.145Z,85.38
2023-02-22T11:46:42.027Z,85.55
2023-02-22T11:49:10.552Z,85.40
2023-02-22T11:51:50.650Z,84.99
2023-02-22T11:54:38.138Z,85.02
2023-02-22T11:57:16.496Z,84.76
2023-02-22T11:59:55.805Z,84.67
2023-02-22T12:02:56.861Z,84.95
2023-02-22T12:05:59.592Z,84.61
2023-02-22T12:08:37.215Z,84.81
2023-02-22T12:11:12.933Z,84.54
2023-02-22T12:14:06.162Z,84.51
2023-02-22T12:16:44.311Z,84.59
2023-02-22T12:19:22.222Z,84.75
2023-02-22T12:21:55.684Z,84.67
2023-02-22T12:24:27.771Z,84.59
2023-02-22T12:27:01.732Z,84.33
2023-02-22T12:29:37.662Z,84.02
2023-02-22T12:32:10.837Z,83.99
2023-02-22T12:34:41.543Z,83.91
2023-02-22T12:37:16.788Z,83.69
2023-02-22T12:39:54.265Z,83.76
2023-02-22T12:42:29.631Z,83.70
2023-02-22T12:45:01.098Z,83.83
2023-02-22T12:47:37.005Z,83.54
2023-02-22T12:50:15.558Z,83.64
2023-02-22T12:52:46.948Z,83.44
2023-02-22T12:55:21.401Z,83.56
2023-02-22T12:57:57.207Z,83.63
2023-02-22T13:00:30.549Z,83.62
2023-02-22T13:03:03.663Z,82.97
2023-02-22T13:05:36.565Z,83.24
2023-02-22T13:08:22.826Z,83.32
2023-02-22T13:11:03.227Z,82.84
2023-02-22T13:13:42.736Z,83.20
2023-02-22T13:16:21.995Z,82.56
2023-02-22T13:18:55.456Z,82.79
2023-02-22T13:21:29.511Z,82.65
2023-02-22T13:24:05.253Z,82.73
2023-02-22T13:26:40.147Z,82.61
2023-02-22T13:29:13.784Z,82.82
2023-02-22T13:31:59.414Z,82.58
2023-02-22T13:34:54.281Z,82.65
2023-02-22T13:37:49.678Z,82.32
2023-02-22T13:40:45.477Z,82.58
2023-02-22T13:43:39.024Z,82.58
2023-02-22T13:46:21.035Z,82.39
2023-02-22T13:49:08.451Z,82.29
2023-02-22T13:51:47.998Z,82.68
2023-02-22T13:54:20.990Z,82.41
2023-02-22T13:56:51.298Z,82.39
2023-02-22T13:59:26.269Z,82.35
2023-02-22T14:01:55.036Z,82.39
2023-02-22T14:04:44.174Z,82.09
2023-02-22T14:07:47.361Z,82.21
2023-02-22T14:10:37.612Z,82.12
2023-02-22T14:13:05.560Z,82.42
2023-02-22T14:15:35.495Z,82.31
2023-02-22T14:18:04.388Z,82.34
2023-02-22T14:20:35.217Z,82.38
2023-02-22T14:23:31.700Z,82.66
2023-02-22T14:26:11.296Z,82.69
2023-02-22T14:28:46.273Z,82.53
2023-02-22T14:31:33.346Z,82.82
2023-02-22T14:34:06.283Z,82.63
2023-02-22T14:36:36.637Z,82.80
2023-02-22T14:39:11.539Z,83.22
2023-02-22T14:41:40.914Z,83.13
2023-02-22T14:44:12.904Z,82.95
2023-02-22T14:46:44.136Z,83.16
2023-02-22T14:49:18.984Z,82.99
2023-02-22T14:51:53.455Z,83.07
2023-02-22T14:54:26.713Z,83.22
2023-02-22T14:57:12.106Z,83.30
2023-02-22T14:59:52.698Z,83.06
2023-02-22T15:02:25.893Z,83.22
2023-02-22T15:04:54.796Z,83.26
2023-02-22T15:07:27.474Z,83.04
2023-02-22T15:10:26.083Z,83.02
2023-02-22T15:13:08.749Z,83.49
2023-02-22T15:15:39.563Z,83.43
2023-02-22T15:18:27.131Z,83.50
2023-02-22T15:20:58.195Z,83.08
2023-02-22T15:23:30.348Z,83.23
2023-02-22T15:25:58.225Z,83.20
2023-02-22T15:28:28.969Z,83.36
2023-02-22T15:31:18.529Z,83.28
2023-02-22T15:33:47.164Z,83.62
2023-02-22T15:36:17.570Z,83.80
2023-02-22T15:38:49.216Z,83.56
2023-02-22T15:41:22.173Z,83.70
2023-02-22T15:44:05.436Z,83.94
2023-02-22T15:46:35.129Z,83.81
2023-02-22T15:49:20.845Z,83.91
2023-02-22T15:51:59.123Z,83.82
2023-02-22T15:54:27.765Z,84.07
2023-02-22T15:56:56.496Z,84.00
2023-02-22T15:59:29.623Z,84.02
2023-02-22T16:01:58.531Z,84.22
2023-02-22T16:04:29.019Z,84.21
2023-02-22T16:07:05.138Z,84.24
2023-02-22T16:09:33.237Z,84.18
2023-02-22T16:12:22.192Z,84.11
2023-02-22T16:14:50.399Z,84.37
2023-02-22T16:17:35.927Z,84.07
2023-02-22T16:20:32.617Z,84.50
2023-02-22T16:23:00.715Z,84.10
2023-02-22T16:25:32.951Z,84.10
2023-02-22T16:28:03.123Z,84.16
2023-02-22T16:30:33.129Z,84.57
2023-02-22T16:33:05.516Z,84.39
2023-02-22T16:35:35.459Z,84.27
2023-02-22T16:38:04.513Z,84.54
2023-02-22T16:40:34.550Z,84.37
2023-02-22T16:43:02.891Z,84.34
2023-02-22T16:45:29.797Z,84.54
2023-02-22T16:47:56.610Z,84.54
2023-02-22T16:50:23.878Z,84.36
2023-02-22T16:52:55.160Z,84.35
2023-02-22T16:55:22.415Z,84.21
2023-02-22T16:57:49.927Z,84.58
2023-02-22T17:00:19.560Z,84.66
2023-02-22T17:02:46.311Z,84.25
2023-02-22T17:05:15.263Z,84.53
2023-02-22T17:07:42.460Z,84.63
2023-02-22T17:10:15.420Z,84.82
2023-02-22T17:12:44.480Z,84.48
2023-02-22T17:15:20.584Z,84.62
2023-02-22T17:17:47.439Z,84.54
2023-02-22T17:20:14.163Z,84.65
2023-02-22T17:22:40.919Z,84.43
2023-02-22T17:25:21.920Z,84.73
2023-02-22T17:27:48.846Z,84.44
2023-02-22T17:30:17.033Z,84.56
2023-02-22T17:32:44.213Z,84.88
2023-02-22T17:35:10.980Z,84.82
2023-02-22T17:37:38.313Z,84.91
2023-02-22T17:40:06.131Z,84.56
2023-02-22T17:42:34.302Z,84.95
2023-02-22T17:45:00.979Z,84.57
2023-02-22T17:47:27.724Z,84.71
2023-02-22T17:49:54.424Z,84.64
2023-02-22T17:52:21.166Z,84.55
2023-02-22T17:54:47.938Z,84.70
2023-02-22T17:57:16.652Z,84.78
2023-02-22T17:59:44.775Z,84.77
2023-02-22T18:02:11.517Z,84.56
2023-02-22T18:04:40.376Z,84.67
2023-02-22T18:07:07.269Z,84.58
2023-02-22T18:09:38.293Z,84.60
2023-02-22T18:12:05.329Z,84.65
2023-02-22T18:14:32.015Z,84.84
2023-02-22T18:17:01.704Z,84.96
2023-02-22T18:19:29.237Z,84.85
2023-02-22T18:22:00.276Z,85.10
2023-02-22T18:24:27.015Z,84.96
2023-02-22T18:26:53.833Z,85.06
2023-02-22T18:29:20.591Z,85.06
2023-02-22T18:31:47.289Z,84.92
2023-02-22T18:34:16.024Z,84.86
2023-02-22T18:36:44.538Z,84.84
2023-02-22T18:39:11.788Z,84.88
2023-02-22T18:41:38.951Z,84.79
2023-02-22T18:44:06.565Z,84.71
2023-02-22T18:46:33.342Z,84.88
2023-02-22T18:49:00.145Z,84.99
2023-02-22T18:51:28.840Z,84.75
2023-02-22T18:54:00.412Z,84.70
2023-02-22T18:56:31.081Z,84.88
2023-02-22T18:58:59.691Z,85.12
2023-02-22T19:01:27.145Z,84.99
2023-02-22T19:03:54.124Z,85.01
2023-02-22T19:06:23.507Z,85.04
2023-02-22T19:08:51.861Z,84.95
2023-02-22T19:11:21.998Z,84.83
2023-02-22T19:13:51.943Z,85.01
2023-02-22T19:16:22.602Z,85.18
2023-02-22T19:18:52.360Z,85.25
2023-02-22T19:21:20.220Z,84.85
2023-02-22T19:23:48.642Z,85.09
2023-02-22T19:26:30.924Z,85.10
2023-02-22T19:28:59.693Z,85.04
2023-02-22T19:31:31.302Z,85.00
2023-02-22T19:34:01.358Z,84.83
2023-02-22T19:36:30.367Z,84.84
2023-02-22T19:39:02.674Z,84.83
2023-02-22T19:41:32.279Z,84.95
2023-02-22T19:43:59.768Z,84.88
2023-02-22T19:46:26.741Z,85.12
2023-02-22T19:48:55.383Z,84.89
2023-02-22T19:51:25.505Z,84.98
2023-02-22T19:53:53.551Z,84.86
2023-02-22T19:56:27.091Z,84.92
2023-02-22T19:58:57.605Z,84.85
2023-02-22T20:01:26.057Z,85.09
2023-02-22T20:03:55.242Z,84.85
2023-02-22T20:06:26.511Z,84.79
2023-02-22T20:08:55.138Z,85.07
2023-02-22T20:11:22.737Z,84.72
2023-02-22T20:13:52.738Z,84.82
2023-02-22T20:16:21.468Z,84.92
2023-02-22T20:18:49.031Z,85.18
2023-02-22T20:21:20.474Z,85.31
2023-02-22T20:23:48.156Z,85.23
2023-02-22T20:26:17.364Z,85.40
2023-02-22T20:28:44.404Z,84.97
2023-02-22T20:31:13.865Z,85.28
2023-02-22T20:33:42.808Z,85.28
2023-02-22T20:36:13.148Z,85.52
2023-02-22T20:38:40.329Z,85.21
2023-02-22T20:41:08.136Z,85.43
2023-02-22T20:43:35.650Z,85.64
2023-02-22T20:46:02.538Z,85.53
2023-02-22T20:48:30.093Z,85.40
2023-02-22T20:51:06.848Z,85.18
2023-02-22T20:53:34.535Z,85.23
2023-02-22T20:56:01.662Z,85.38
2023-02-22T20:58:29.324Z,85.62
2023-02-22T21:00:56.089Z,85.71
2023-02-22T21:03:23.006Z,85.56
2023-02-22T21:05:49.821Z,85.45
2023-02-22T21:08:17.978Z,85.62
2023-02-22T21:10:47.256Z,85.57
2023-02-22T21:13:14.614Z,85.33
2023-02-22T21:15:44.007Z,85.72
2023-02-22T21:18:13.482Z,85.88
2023-02-22T21:20:42.780Z,85.41
2023-02-22T21:23:19.608Z,85.54
2023-02-22T21:25:53.915Z,85.62
2023-02-22T21:28:20.859Z,85.79
2023-02-22T21:30:47.743Z,85.87
2023-02-22T21:33:17.640Z,85.82
2023-02-22T21:35:47.230Z,85.94
2023-02-22T21:38:17.368Z,85.99
2023-02-22T21:40:46.477Z,85.98
2023-02-22T21:43:25.147Z,85.91
2023-02-22T21:45:51.904Z,85.65
2023-02-22T21:48:18.662Z,85.66
2023-02-22T21:50:45.499Z,85.88
2023-02-22T21:53:12.842Z,85.70
2023-02-22T21:55:44.276Z,86.09
2023-02-22T21:58:16.180Z,86.04
2023-02-22T22:00:44.581Z,85.79
2023-02-22T22:03:17.131Z,86.04
2023-02-22T22:05:46.161Z,85.87
2023-02-22T22:08:19.454Z,86.27
2023-02-22T22:10:51.520Z,85.80
2023-02-22T22:13:19.961Z,86.02
2023-02-22T22:15:46.743Z,86.12
2023-02-22T22:18:13.642Z,85.74
2023-02-22T22:20:40.396Z,86.11
2023-02-22T22:23:07.632Z,86.03
2023-02-22T22:25:38.269Z,85.76
2023-02-22T22:28:07.603Z,85.89
2023-02-22T22:30:37.099Z,85.93
2023-02-22T22:33:07.532Z,86.21
2023-02-22T22:35:34.241Z,85.91
2023-02-22T22:38:01.219Z,85.86
2023-02-22T22:40:28.646Z,85.97
2023-02-22T22:42:55.718Z,86.05
2023-02-22T22:45:25.583Z,86.37
2023-02-22T22:47:53.753Z,86.05
2023-02-22T22:50:26.399Z,85.89
2023-02-22T22:52:55.510Z,86.37
2023-02-22T22:55:24.307Z,86.25
2023-02-22T22:57:54.127Z,86.38
2023-02-22T23:00:37.757Z,86.16
2023-02-22T23:03:07.071Z,86.41
2023-02-22T23:05:46.403Z,86.26
2023-02-22T23:08:13.326Z,86.51
2023-02-22T23:10:41.215Z,86.40
2023-02-22T23:13:15.584Z,86.34
2023-02-22T23:15:43.358Z,86.57
2023-02-22T23:18:12.453Z,86.20
2023-02-22T23:20:39.236Z,86.11
2023-02-22T23:23:06.265Z,86.17
2023-02-22T23:25:33.608Z,86.00
2023-02-22T23:28:00.734Z,86.09
2023-02-22T23:30:27.671Z,86.18
2023-02-22T23:32:54.429Z,86.29
2023-02-22T23:35:22.712Z,86.40
2023-02-22T23:37:57.952Z,86.13
2023-02-22T23:40:25.994Z,86.29
2023-02-22T23:42:56.506Z,86.27
2023-02-22T23:45:24.442Z,86.29
2023-02-22T23:47:54.789Z,86.17
2023-02-22T23:50:25.787Z,86.54
2023-02-22T23:52:58.476Z,86.37
2023-02-22T23:55:26.449Z,86.33
